createdAt,value
2018-11-07T00:00:48.816Z,410.70
2018-11-07T00:03:18.734Z,463.37
2018-11-07T00:05:48.240Z,413.23
2018-11-07T00:08:18.200Z,455.93
2018-11-07T00:10:47.428Z,548.47
2018-11-07T00:13:16.879Z,472.73
2018-11-07T00:15:46.199Z,507.27
2018-11-07T00:18:15.637Z,570.77
2018-11-07T00:20:45.224Z,493.53
2018-11-07T00:23:17.235Z,386.40
2018-11-07T00:25:46.803Z,364.73
2018-11-07T00:28:16.183Z,354.03
2018-11-07T00:30:45.531Z,470.00
2018-11-07T00:33:14.833Z,405.57
2018-11-07T00:35:45.204Z,206.03
2018-11-07T00:38:14.579Z,358.33
2018-11-07T00:40:43.957Z,270.90
2018-11-07T00:43:13.436Z,444.40
2018-11-07T00:45:44.968Z,278.23
2018-11-07T00:48:14.877Z,230.40
2018-11-07T00:50:44.389Z,184.73
2018-11-07T00:53:13.770Z,176.30
2018-11-07T00:55:44.483Z,105.53
2018-11-07T00:58:13.883Z,361.63
2018-11-07T01:00:43.160Z,393.30
2018-11-07T01:03:12.546Z,537.00
2018-11-07T01:05:41.838Z,375.53
2018-11-07T01:08:11.227Z,451.77
2018-11-07T01:10:40.556Z,251.73
2018-11-07T01:13:10.002Z,455.93
2018-11-07T01:15:39.322Z,371.17
2018-11-07T01:18:08.681Z,449.37
2018-11-07T01:20:38.227Z,511.77
2018-11-07T01:23:08.570Z,509.40
2018-11-07T01:25:37.940Z,720.47
2018-11-07T01:28:07.377Z,728.87
2018-11-07T01:30:36.645Z,573.53
2018-11-07T01:33:06.523Z,635.77
2018-11-07T01:35:36.395Z,525.33
2018-11-07T01:38:06.293Z,347.30
2018-11-07T01:40:35.831Z,719.60
2018-11-07T01:43:05.621Z,309.90
2018-11-07T01:45:34.835Z,496.80
2018-11-07T01:48:04.193Z,617.00
2018-11-07T01:50:33.646Z,583.97
2018-11-07T01:53:02.956Z,449.67
2018-11-07T01:55:32.344Z,420.83
2018-11-07T01:58:01.721Z,313.60
2018-11-07T02:00:31.084Z,275.73
2018-11-07T02:03:00.482Z,285.30
2018-11-07T02:05:29.820Z,269.87
2018-11-07T02:07:59.268Z,428.17
2018-11-07T02:10:28.634Z,201.33
2018-11-07T02:12:57.924Z,278.60
2018-11-07T02:15:27.247Z,276.37
2018-11-07T02:17:56.578Z,309.23
2018-11-07T02:20:25.989Z,271.87
2018-11-07T02:22:55.357Z,194.73
2018-11-07T02:25:24.839Z,554.37
2018-11-07T02:27:54.211Z,406.27
2018-11-07T02:30:23.740Z,303.87
2018-11-07T02:32:53.112Z,300.20
2018-11-07T02:35:22.677Z,302.47
2018-11-07T02:37:52.103Z,248.20
2018-11-07T02:40:21.547Z,285.70
2018-11-07T02:42:51.120Z,251.90
2018-11-07T02:45:20.572Z,280.50
2018-11-07T02:47:50.190Z,272.60
2018-11-07T02:50:19.536Z,289.17
2018-11-07T02:52:48.956Z,256.13
2018-11-07T02:55:18.267Z,199.07
2018-11-07T02:57:47.710Z,183.30
2018-11-07T03:00:17.039Z,142.43
2018-11-07T03:02:46.352Z,161.13
2018-11-07T03:05:15.678Z,132.67
2018-11-07T03:07:44.993Z,107.33
2018-11-07T03:10:15.174Z,156.50
2018-11-07T03:12:44.426Z,155.43
2018-11-07T03:15:13.927Z,179.43
2018-11-07T03:17:43.764Z,165.03
2018-11-07T03:20:13.590Z,154.83
2018-11-07T03:22:42.999Z,128.33
2018-11-07T03:25:12.353Z,137.97
2018-11-07T03:27:41.670Z,160.97
2018-11-07T03:30:11.176Z,169.87
2018-11-07T03:32:40.537Z,177.50
2018-11-07T03:35:15.398Z,186.80
2018-11-07T03:37:44.857Z,212.13
2018-11-07T03:40:14.186Z,173.93
2018-11-07T03:42:43.956Z,164.23
2018-11-07T03:45:13.267Z,218.00
2018-11-07T03:47:43.243Z,183.10
2018-11-07T03:50:12.587Z,175.07
2018-11-07T03:52:42.017Z,204.20
2018-11-07T03:55:11.357Z,192.07
2018-11-07T03:57:40.758Z,141.90
2018-11-07T04:00:10.609Z,146.30
2018-11-07T04:02:40.582Z,201.23
2018-11-07T04:05:11.442Z,139.47
2018-11-07T04:07:41.868Z,162.20
2018-11-07T04:10:11.547Z,171.37
2018-11-07T04:12:40.862Z,192.97
2018-11-07T04:15:10.387Z,167.70
2018-11-07T04:17:39.725Z,177.87
2018-11-07T04:20:09.878Z,156.93
2018-11-07T04:22:39.942Z,174.67
2018-11-07T04:25:09.943Z,179.93
2018-11-07T04:27:39.515Z,179.60
2018-11-07T04:30:10.803Z,201.83
2018-11-07T04:32:40.369Z,158.13
2018-11-07T04:35:11.057Z,178.63
2018-11-07T04:37:41.575Z,167.67
2018-11-07T04:40:12.551Z,171.33
2018-11-07T04:42:42.288Z,153.93
2018-11-07T04:45:11.629Z,145.27
2018-11-07T04:47:40.970Z,172.73
2018-11-07T04:50:12.369Z,157.00
2018-11-07T04:52:41.832Z,157.03
2018-11-07T04:55:11.226Z,122.80
2018-11-07T04:57:40.719Z,135.47
2018-11-07T05:00:11.662Z,155.43
2018-11-07T05:02:41.726Z,141.97
2018-11-07T05:05:11.246Z,134.97
2018-11-07T05:07:40.566Z,135.87
2018-11-07T05:10:11.046Z,133.90
2018-11-07T05:12:40.692Z,148.90
2018-11-07T05:15:10.514Z,140.37
2018-11-07T05:17:39.859Z,128.53
2018-11-07T05:20:10.250Z,128.60
2018-11-07T05:22:39.817Z,114.53
2018-11-07T05:25:10.140Z,128.57
2018-11-07T05:27:39.961Z,120.07
2018-11-07T05:30:10.083Z,102.07
2018-11-07T05:32:39.650Z,123.53
2018-11-07T05:35:09.195Z,100.43
2018-11-07T05:37:38.734Z,88.07
2018-11-07T05:40:08.285Z,109.20
2018-11-07T05:42:37.830Z,108.97
2018-11-07T05:45:07.344Z,99.97
2018-11-07T05:47:36.726Z,100.23
2018-11-07T05:50:07.458Z,85.60
2018-11-07T05:52:37.153Z,100.33
2018-11-07T05:55:07.682Z,87.97
2018-11-07T05:57:37.108Z,87.80
2018-11-07T06:00:08.319Z,78.53
2018-11-07T06:02:38.127Z,68.27
2018-11-07T06:05:08.499Z,72.03
2018-11-07T06:07:38.486Z,86.23
2018-11-07T06:10:10.059Z,74.37
2018-11-07T06:12:40.765Z,93.00
2018-11-07T06:15:11.505Z,53.87
2018-11-07T06:17:40.933Z,81.43
2018-11-07T06:20:11.338Z,78.53
2018-11-07T06:22:40.785Z,91.27
2018-11-07T06:25:10.348Z,76.73
2018-11-07T06:27:39.766Z,87.37
2018-11-07T06:30:11.079Z,99.47
2018-11-07T06:32:40.851Z,81.27
2018-11-07T06:35:10.873Z,91.67
2018-11-07T06:37:40.526Z,87.60
2018-11-07T06:40:11.432Z,35.40
2018-11-07T06:42:40.978Z,115.07
2018-11-07T06:45:11.159Z,93.40
2018-11-07T06:47:40.523Z,73.50
2018-11-07T06:50:15.288Z,100.40
2018-11-07T06:52:44.962Z,104.00
2018-11-07T06:55:14.373Z,104.07
2018-11-07T06:57:44.040Z,105.47
2018-11-07T07:00:16.346Z,114.77
2018-11-07T07:02:46.860Z,115.10
2018-11-07T07:05:16.557Z,99.40
2018-11-07T07:07:45.873Z,108.40
2018-11-07T07:10:16.570Z,96.97
2018-11-07T07:12:45.997Z,104.10
2018-11-07T07:15:16.637Z,103.47
2018-11-07T07:17:46.628Z,106.60
2018-11-07T07:20:17.941Z,94.50
2018-11-07T07:22:48.089Z,106.93
2018-11-07T07:25:17.818Z,75.43
2018-11-07T07:27:47.749Z,95.10
2018-11-07T07:30:21.627Z,92.00
2018-11-07T07:32:51.496Z,92.97
2018-11-07T07:35:20.929Z,88.83
2018-11-07T07:37:50.322Z,89.30
2018-11-07T07:40:19.870Z,96.37
2018-11-07T07:42:49.564Z,99.80
2018-11-07T07:45:19.925Z,76.63
2018-11-07T07:47:49.298Z,79.70
2018-11-07T07:50:19.553Z,70.33
2018-11-07T07:52:49.431Z,67.63
2018-11-07T07:55:19.831Z,67.53
2018-11-07T07:57:49.294Z,71.37
2018-11-07T08:00:20.158Z,74.40
2018-11-07T08:02:51.094Z,73.67
2018-11-07T08:05:20.619Z,72.30
2018-11-07T08:07:50.286Z,65.07
2018-11-07T08:10:21.118Z,72.43
2018-11-07T08:12:51.162Z,74.40
2018-11-07T08:15:20.505Z,58.83
2018-11-07T08:17:50.042Z,72.10
2018-11-07T08:20:20.603Z,63.63
2018-11-07T08:22:50.269Z,65.70
2018-11-07T08:25:21.115Z,72.30
2018-11-07T08:27:50.594Z,68.07
2018-11-07T08:30:21.558Z,74.63
2018-11-07T08:32:51.051Z,67.30
2018-11-07T08:35:20.467Z,56.50
2018-11-07T08:37:49.905Z,58.73
2018-11-07T08:40:22.658Z,66.43
2018-11-07T08:42:53.212Z,67.23
2018-11-07T08:45:22.585Z,63.63
2018-11-07T08:47:53.147Z,76.80
2018-11-07T08:50:22.523Z,74.17
2018-11-07T08:52:51.860Z,73.90
2018-11-07T08:55:22.391Z,79.00
2018-11-07T08:57:51.971Z,67.07
2018-11-07T09:00:22.676Z,68.37
2018-11-07T09:02:52.287Z,75.70
2018-11-07T09:05:22.616Z,56.37
2018-11-07T09:07:52.067Z,61.30
2018-11-07T09:10:22.759Z,59.17
2018-11-07T09:12:52.210Z,57.63
2018-11-07T09:15:22.759Z,46.97
2018-11-07T09:17:52.204Z,50.10
2018-11-07T09:20:23.051Z,40.13
2018-11-07T09:22:52.501Z,44.27
2018-11-07T09:25:21.827Z,47.70
2018-11-07T09:27:51.298Z,44.00
2018-11-07T09:30:23.268Z,51.03
2018-11-07T09:32:53.147Z,46.67
2018-11-07T09:35:22.633Z,45.23
2018-11-07T09:37:52.225Z,46.87
2018-11-07T09:40:22.155Z,52.63
2018-11-07T09:42:51.838Z,56.97
2018-11-07T09:45:22.564Z,50.33
2018-11-07T09:47:52.923Z,46.50
2018-11-07T09:50:22.406Z,48.63
2018-11-07T09:52:51.808Z,45.00
2018-11-07T09:55:21.746Z,42.90
2018-11-07T09:57:51.191Z,49.13
2018-11-07T10:00:21.584Z,53.97
2018-11-07T10:02:50.695Z,38.30
2018-11-07T10:05:21.105Z,43.70
2018-11-07T10:07:50.190Z,33.90
2018-11-07T10:10:20.514Z,29.23
2018-11-07T10:12:49.896Z,36.50
2018-11-07T10:15:19.281Z,23.00
2018-11-07T10:17:48.438Z,26.37
2018-11-07T10:20:20.926Z,27.27
2018-11-07T10:22:50.157Z,24.50
2018-11-07T10:25:19.608Z,24.40
2018-11-07T10:27:48.926Z,27.57
2018-11-07T10:30:19.083Z,21.47
2018-11-07T10:32:49.112Z,23.53
2018-11-07T10:35:18.315Z,22.30
2018-11-07T10:37:47.971Z,22.20
2018-11-07T10:40:22.052Z,30.40
2018-11-07T10:42:51.453Z,29.20
2018-11-07T10:45:21.371Z,21.30
2018-11-07T10:47:51.294Z,23.40
2018-11-07T10:50:21.543Z,21.97
2018-11-07T10:52:51.584Z,21.47
2018-11-07T10:55:22.121Z,20.43
2018-11-07T10:57:51.656Z,19.07
2018-11-07T11:00:26.392Z,17.90
2018-11-07T11:03:00.975Z,20.50
2018-11-07T11:05:30.622Z,20.63
2018-11-07T11:07:59.952Z,25.80
2018-11-07T11:10:29.809Z,14.90
2018-11-07T11:12:59.396Z,14.13
2018-11-07T11:15:28.738Z,15.33
2018-11-07T11:17:58.120Z,14.17
2018-11-07T11:20:28.257Z,13.07
2018-11-07T11:22:57.754Z,15.23
2018-11-07T11:25:27.129Z,19.57
2018-11-07T11:27:56.659Z,19.17
2018-11-07T11:30:26.155Z,14.60
2018-11-07T11:32:55.494Z,12.10
2018-11-07T11:35:25.084Z,10.40
2018-11-07T11:37:54.899Z,12.80
2018-11-07T11:40:24.555Z,9.90
2018-11-07T11:42:53.973Z,11.60
2018-11-07T11:45:23.354Z,12.90
2018-11-07T11:47:52.802Z,10.97
2018-11-07T11:50:22.831Z,10.87
2018-11-07T11:52:52.271Z,9.97
2018-11-07T11:55:21.670Z,10.97
2018-11-07T11:57:51.032Z,14.63
2018-11-07T12:00:21.258Z,11.03
2018-11-07T12:02:50.741Z,11.30
2018-11-07T12:05:20.593Z,12.60
2018-11-07T12:07:50.048Z,12.00
2018-11-07T12:10:21.086Z,9.70
2018-11-07T12:12:51.889Z,12.03
2018-11-07T12:15:23.268Z,13.67
2018-11-07T12:17:53.540Z,12.73
2018-11-07T12:20:22.994Z,8.40
2018-11-07T12:22:52.822Z,8.20
2018-11-07T12:25:23.822Z,10.53
2018-11-07T12:27:53.259Z,10.30
2018-11-07T12:30:24.866Z,9.80
2018-11-07T12:32:56.364Z,8.60
2018-11-07T12:35:26.222Z,10.23
2018-11-07T12:37:55.295Z,7.43
2018-11-07T12:40:24.373Z,7.63
2018-11-07T12:42:53.481Z,9.10
2018-11-07T12:45:22.968Z,10.40
2018-11-07T12:47:52.517Z,7.20
2018-11-07T12:50:24.152Z,5.73
2018-11-07T12:52:54.623Z,15.60
2018-11-07T12:55:24.006Z,8.93
2018-11-07T12:57:53.469Z,5.70
2018-11-07T13:00:26.095Z,6.33
2018-11-07T13:02:55.707Z,5.00
2018-11-07T13:05:26.118Z,6.10
2018-11-07T13:07:56.886Z,4.77
2018-11-07T13:10:26.598Z,5.73
2018-11-07T13:12:56.150Z,3.67
2018-11-07T13:15:25.735Z,5.00
2018-11-07T13:17:55.572Z,13.07
2018-11-07T13:20:26.253Z,3.83
2018-11-07T13:22:56.196Z,5.43
2018-11-07T13:25:26.502Z,7.93
2018-11-07T13:27:56.078Z,4.67
2018-11-07T13:30:25.565Z,5.40
2018-11-07T13:32:54.908Z,3.67
2018-11-07T13:35:24.345Z,5.23
2018-11-07T13:37:54.142Z,4.17
2018-11-07T13:40:24.861Z,8.17
2018-11-07T13:42:54.175Z,4.00
2018-11-07T13:45:23.905Z,2.60
2018-11-07T13:47:54.323Z,2.60
2018-11-07T13:50:23.846Z,5.77
2018-11-07T13:52:53.197Z,5.70
2018-11-07T13:55:22.475Z,3.63
2018-11-07T13:57:51.839Z,10.63
2018-11-07T14:00:22.378Z,4.43
2018-11-07T14:02:52.616Z,3.40
2018-11-07T14:05:23.461Z,4.50
2018-11-07T14:07:52.838Z,2.80
2018-11-07T14:10:26.260Z,5.03
2018-11-07T14:12:58.150Z,4.50
2018-11-07T14:15:28.234Z,2.17
2018-11-07T14:17:57.738Z,2.47
2018-11-07T14:20:27.030Z,6.63
2018-11-07T14:22:56.851Z,3.37
2018-11-07T14:25:26.333Z,1.50
2018-11-07T14:27:56.021Z,4.97
2018-11-07T14:30:28.038Z,1.83
2018-11-07T14:33:00.515Z,2.47
2018-11-07T14:35:30.605Z,11.70
2018-11-07T14:38:00.229Z,7.60
2018-11-07T14:40:29.592Z,3.37
2018-11-07T14:42:59.120Z,8.60
2018-11-07T14:45:28.723Z,1.33
2018-11-07T14:47:58.210Z,1.80
2018-11-07T14:50:27.569Z,4.47
2018-11-07T14:52:57.000Z,4.00
2018-11-07T14:55:26.444Z,6.37
2018-11-07T14:57:55.752Z,1.43
2018-11-07T15:00:25.141Z,6.50
2018-11-07T15:02:55.021Z,5.30
2018-11-07T15:05:24.661Z,2.77
2018-11-07T15:07:54.667Z,6.40
2018-11-07T15:10:24.052Z,6.00
2018-11-07T15:12:54.692Z,2.50
2018-11-07T15:15:24.227Z,3.17
2018-11-07T15:17:53.572Z,2.10
2018-11-07T15:20:23.827Z,1.83
2018-11-07T15:22:53.168Z,4.87
2018-11-07T15:25:23.476Z,6.17
2018-11-07T15:27:52.887Z,4.00
2018-11-07T15:30:22.224Z,4.97
2018-11-07T15:32:51.635Z,4.67
2018-11-07T15:35:21.188Z,3.03
2018-11-07T15:37:50.605Z,3.00
2018-11-07T15:40:20.195Z,3.10
2018-11-07T15:42:49.601Z,4.83
2018-11-07T15:45:20.083Z,2.90
2018-11-07T15:47:49.485Z,2.17
2018-11-07T15:50:24.371Z,8.00
2018-11-07T15:52:53.813Z,2.10
2018-11-07T15:55:23.111Z,4.10
2018-11-07T15:57:52.795Z,6.00
2018-11-07T16:00:22.129Z,6.83
2018-11-07T16:02:51.579Z,2.20
2018-11-07T16:05:20.953Z,13.17
2018-11-07T16:07:50.446Z,2.83
2018-11-07T16:10:20.086Z,4.80
2018-11-07T16:12:49.692Z,3.30
2018-11-07T16:15:19.247Z,5.13
2018-11-07T16:17:48.611Z,4.73
2018-11-07T16:20:19.394Z,8.10
2018-11-07T16:22:49.707Z,11.27
2018-11-07T16:25:19.099Z,7.97
2018-11-07T16:27:49.092Z,7.07
2018-11-07T16:30:19.747Z,12.53
2018-11-07T16:32:49.171Z,4.63
2018-11-07T16:35:18.605Z,7.67
2018-11-07T16:37:48.097Z,11.60
2018-11-07T16:40:18.444Z,5.47
2018-11-07T16:42:47.912Z,5.20
2018-11-07T16:45:18.220Z,24.17
2018-11-07T16:47:47.758Z,12.17
2018-11-07T16:50:17.915Z,5.33
2018-11-07T16:52:47.679Z,5.80
2018-11-07T16:55:17.022Z,5.07
2018-11-07T16:57:47.247Z,14.10
2018-11-07T17:00:20.542Z,8.27
2018-11-07T17:02:50.468Z,7.30
2018-11-07T17:05:20.560Z,6.77
2018-11-07T17:07:49.978Z,7.23
2018-11-07T17:10:19.898Z,11.77
2018-11-07T17:12:49.652Z,12.40
2018-11-07T17:15:19.819Z,20.80
2018-11-07T17:17:49.412Z,20.27
2018-11-07T17:20:19.274Z,16.03
2018-11-07T17:22:48.815Z,10.80
2018-11-07T17:25:19.513Z,12.20
2018-11-07T17:27:48.917Z,10.70
2018-11-07T17:30:18.915Z,13.43
2018-11-07T17:32:48.579Z,14.43
2018-11-07T17:35:20.007Z,12.73
2018-11-07T17:37:50.503Z,15.80
2018-11-07T17:40:23.108Z,16.33
2018-11-07T17:42:53.526Z,27.10
2018-11-07T17:45:23.599Z,13.50
2018-11-07T17:47:53.453Z,18.83
2018-11-07T17:50:23.613Z,20.07
2018-11-07T17:52:53.881Z,19.47
2018-11-07T17:55:23.587Z,18.27
2018-11-07T17:57:53.005Z,28.73
2018-11-07T18:00:26.687Z,18.03
2018-11-07T18:02:56.011Z,14.53
2018-11-07T18:05:25.366Z,19.87
2018-11-07T18:07:54.739Z,21.17
2018-11-07T18:10:24.058Z,25.27
2018-11-07T18:12:53.421Z,21.33
2018-11-07T18:15:22.910Z,19.10
2018-11-07T18:17:52.316Z,21.53
2018-11-07T18:20:21.751Z,20.33
2018-11-07T18:22:51.984Z,21.03
2018-11-07T18:25:21.612Z,21.30
2018-11-07T18:27:50.963Z,18.10
2018-11-07T18:30:20.420Z,21.90
2018-11-07T18:32:49.905Z,22.20
2018-11-07T18:35:20.298Z,23.00
2018-11-07T18:37:49.593Z,24.60
2018-11-07T18:40:20.419Z,20.10
2018-11-07T18:42:50.373Z,15.77
2018-11-07T18:45:19.672Z,19.53
2018-11-07T18:47:49.179Z,18.13
2018-11-07T18:50:19.871Z,20.03
2018-11-07T18:52:49.113Z,14.90
2018-11-07T18:55:18.676Z,16.20
2018-11-07T18:57:49.150Z,16.90
2018-11-07T19:00:19.929Z,26.73
2018-11-07T19:02:50.137Z,10.70
2018-11-07T19:05:19.761Z,19.50
2018-11-07T19:07:49.164Z,14.77
2018-11-07T19:10:19.998Z,21.30
2018-11-07T19:12:50.002Z,24.70
2018-11-07T19:15:19.504Z,30.20
2018-11-07T19:17:49.930Z,30.60
2018-11-07T19:20:20.722Z,29.20
2018-11-07T19:22:50.012Z,33.07
2018-11-07T19:25:20.722Z,34.93
2018-11-07T19:27:50.163Z,31.47
2018-11-07T19:30:20.638Z,28.37
2018-11-07T19:32:51.192Z,29.13
2018-11-07T19:35:21.203Z,22.40
2018-11-07T19:37:52.289Z,26.17
2018-11-07T19:40:23.534Z,28.40
2018-11-07T19:42:52.943Z,31.13
2018-11-07T19:45:23.016Z,28.67
2018-11-07T19:47:52.526Z,27.70
2018-11-07T19:50:22.530Z,29.93
2018-11-07T19:52:52.419Z,33.53
2018-11-07T19:55:23.513Z,26.53
2018-11-07T19:57:58.027Z,28.20
2018-11-07T20:00:27.827Z,24.60
2018-11-07T20:02:57.669Z,28.13
2018-11-07T20:05:27.068Z,29.53
2018-11-07T20:07:56.629Z,28.97
2018-11-07T20:10:26.149Z,34.53
2018-11-07T20:12:55.494Z,27.07
2018-11-07T20:15:24.836Z,35.43
2018-11-07T20:17:54.172Z,30.67
2018-11-07T20:20:23.568Z,31.67
2018-11-07T20:22:52.896Z,27.40
2018-11-07T20:25:22.213Z,43.77
2018-11-07T20:27:51.603Z,36.37
2018-11-07T20:30:21.867Z,28.57
2018-11-07T20:32:51.433Z,34.90
2018-11-07T20:35:21.646Z,26.77
2018-11-07T20:37:50.948Z,29.43
2018-11-07T20:40:21.542Z,32.40
2018-11-07T20:42:50.992Z,26.33
2018-11-07T20:45:20.649Z,31.83
2018-11-07T20:47:49.977Z,34.67
2018-11-07T20:50:20.772Z,28.50
2018-11-07T20:52:50.401Z,29.77
2018-11-07T20:55:19.739Z,25.07
2018-11-07T20:57:49.072Z,30.40
2018-11-07T21:00:20.161Z,24.10
2018-11-07T21:02:49.947Z,26.03
2018-11-07T21:05:19.561Z,26.50
2018-11-07T21:07:48.957Z,20.43
2018-11-07T21:10:19.685Z,25.73
2018-11-07T21:12:49.586Z,26.33
2018-11-07T21:15:20.046Z,20.70
2018-11-07T21:17:49.385Z,19.30
2018-11-07T21:20:18.696Z,24.93
2018-11-07T21:22:48.104Z,20.67
2018-11-07T21:25:17.437Z,24.33
2018-11-07T21:27:46.786Z,31.27
2018-11-07T21:30:16.102Z,24.83
2018-11-07T21:32:45.667Z,32.00
2018-11-07T21:35:15.161Z,38.43
2018-11-07T21:37:44.555Z,31.83
2018-11-07T21:40:15.724Z,29.43
2018-11-07T21:42:46.584Z,25.63
2018-11-07T21:45:16.769Z,27.40
2018-11-07T21:47:46.152Z,18.27
2018-11-07T21:50:16.803Z,24.63
2018-11-07T21:52:46.131Z,23.90
2018-11-07T21:55:15.507Z,31.63
2018-11-07T21:57:45.727Z,36.77
2018-11-07T22:00:17.525Z,24.97
2018-11-07T22:02:47.042Z,34.50
2018-11-07T22:05:17.486Z,29.90
2018-11-07T22:07:46.933Z,32.30
2018-11-07T22:10:17.553Z,31.40
2018-11-07T22:12:46.975Z,30.40
2018-11-07T22:15:16.384Z,33.67
2018-11-07T22:17:45.704Z,33.23
2018-11-07T22:20:17.819Z,34.67
2018-11-07T22:22:47.181Z,31.67
2018-11-07T22:25:16.780Z,29.03
2018-11-07T22:27:46.111Z,27.03
2018-11-07T22:30:16.743Z,27.17
2018-11-07T22:32:46.211Z,25.50
2018-11-07T22:35:17.073Z,25.33
2018-11-07T22:37:46.911Z,27.70
2018-11-07T22:40:17.865Z,25.60
2018-11-07T22:42:47.314Z,26.13
2018-11-07T22:45:16.822Z,25.47
2018-11-07T22:47:46.186Z,28.17
2018-11-07T22:50:16.279Z,23.00
2018-11-07T22:52:46.067Z,28.10
2018-11-07T22:55:15.599Z,25.97
2018-11-07T22:57:45.194Z,19.20
2018-11-07T23:00:22.162Z,24.37
2018-11-07T23:02:53.040Z,18.17
2018-11-07T23:05:22.401Z,26.93
2018-11-07T23:07:52.340Z,23.00
2018-11-07T23:10:21.687Z,23.30
2018-11-07T23:12:51.436Z,26.27
2018-11-07T23:15:26.197Z,24.23
2018-11-07T23:17:55.536Z,20.73
2018-11-07T23:20:25.041Z,23.50
2018-11-07T23:22:54.468Z,21.10
2018-11-07T23:25:23.960Z,22.00
2018-11-07T23:27:53.272Z,23.67
2018-11-07T23:30:22.692Z,27.97
2018-11-07T23:32:52.048Z,25.67
2018-11-07T23:35:21.465Z,31.67
2018-11-07T23:37:50.800Z,28.13
2018-11-07T23:40:20.123Z,26.83
2018-11-07T23:42:49.609Z,30.60
2018-11-07T23:45:19.300Z,35.43
2018-11-07T23:47:48.951Z,33.67
2018-11-07T23:50:18.430Z,24.67
2018-11-07T23:52:52.009Z,21.00
2018-11-07T23:55:22.573Z,24.20
2018-11-07T23:57:52.800Z,23.93
